Ardmore, PA

6:04 PM EDT on August 29, 2016 (GMT -0400)
Woodmere Park | | Change Station

Elev 295 ft 39.99 °N, 75.30 °W | Updated 2 seconds ago

Scattered Clouds
Scattered Clouds
91.2 °F
Feels Like 91 °F
N
0.0
Wind Variable Wind from SSE
Gusts 0.0 mph

Today
High -- | Low -- °F
--% Chance of Precip.
Yesterday
High -- | Low -- °F
Precip. -- in
Pressure 30.05 in
Visibility 10.0 miles
Clouds Few 6000 ft
Scattered Clouds 30000 ft
Heat Index 91 °F
Dew Point 61 °F
Humidity 36%
Rainfall 0.00 in
Snow Depth Not available.
6:26 AM 7:36 PM
Waning Crescent, 6% visible
METAR KPHL 292154Z 34009KT 10SM FEW060 SCT300 33/16 A3005 RMK AO2 SLP175 T03330161
Pressure 30.05 in
Visibility 10.0 miles
Clouds Few 6000 ft
Scattered Clouds 30000 ft
Heat Index 91 °F
Dew Point 61 °F
Humidity 36%
Rainfall 0.00 in
Snow Depth Not available.
6:26 AM 7:36 PM
Waning Crescent, 6% visible
METAR KPHL 292154Z 34009KT 10SM FEW060 SCT300 33/16 A3005 RMK AO2 SLP175 T03330161

10-Day Weather Forecast

Almanac

Astronomy

Aug. 29, 2016 Rise Set
Actual Time
Civil Twilight
Nautical Twilight
Astronomical Twilight
Moon
Length of Visible Light
Length of Day
Tomorrow will be .
, % of the Moon is Illuminated

Today's Extremes

State Highs State Lows

Community

WunderPhotos

Upload Photos

1,935,690 photos uploaded!

WunderBlog® & News

Nearby

Air Quality

  Air Quality AQ Index Pollutant
Not available.

Snow Depth

Station Depth Elevation

Earthquake Activity

City Distance Mag. Time & Date
Minimum magnitude displayed is 2.5.

Coastal Water Temperatures

Place Temperature

Stations

Nearby Weather Stations

Station Location Temp. Windchill Dew Point Humidity Wind Precip. Elev Updated Type
                   

Watches & Warnings

There are currently no watches in effect.